sensor_id;sensor_type;location;lat;lon;timestamp;temperature;humidity
45383;DHT22;42455;51.660;5.824;2022-07-29T00:03:59;20.1;68.5
45383;DHT22;42455;51.660;5.824;2022-07-29T00:09:06;20.0;68.5
45383;DHT22;42455;51.660;5.824;2022-07-29T00:14:12;20.0;69.0
45383;DHT22;42455;51.660;5.824;2022-07-29T00:19:18;20.0;69.0
45383;DHT22;42455;51.660;5.824;2022-07-29T00:24:24;20.0;69.0
45383;DHT22;42455;51.660;5.824;2022-07-29T00:29:30;20.0;69.0
45383;DHT22;42455;51.660;5.824;2022-07-29T00:34:36;20.0;69.0
45383;DHT22;42455;51.660;5.824;2022-07-29T00:39:43;20.0;69.0
45383;DHT22;42455;51.660;5.824;2022-07-29T00:44:49;20.0;69.0
45383;DHT22;42455;51.660;5.824;2022-07-29T00:49:55;20.1;69.0
45383;DHT22;42455;51.660;5.824;2022-07-29T00:55:03;20.0;69.5
45383;DHT22;42455;51.660;5.824;2022-07-29T01:00:09;20.0;70.0
45383;DHT22;42455;51.660;5.824;2022-07-29T01:05:15;19.9;70.5
45383;DHT22;42455;51.660;5.824;2022-07-29T01:10:20;19.8;71.0
45383;DHT22;42455;51.660;5.824;2022-07-29T01:15:25;19.8;72.0
45383;DHT22;42455;51.660;5.824;2022-07-29T01:21:07;19.7;73.0
45383;DHT22;42455;51.660;5.824;2022-07-29T01:27:38;19.5;74.0
45383;DHT22;42455;51.660;5.824;2022-07-29T01:30:47;19.4;74.5
45383;DHT22;42455;51.660;5.824;2022-07-29T01:35:50;19.3;75.0
45383;DHT22;42455;51.660;5.824;2022-07-29T01:41:07;19.1;76.5
45383;DHT22;42455;51.660;5.824;2022-07-29T01:46:21;19.0;77.5
45383;DHT22;42455;51.660;5.824;2022-07-29T01:51:23;18.8;78.5
45383;DHT22;42455;51.660;5.824;2022-07-29T01:56:22;18.7;79.5
45383;DHT22;42455;51.660;5.824;2022-07-29T02:01:24;18.6;80.0
45383;DHT22;42455;51.660;5.824;2022-07-29T02:06:29;18.5;80.5
45383;DHT22;42455;51.660;5.824;2022-07-29T02:11:35;18.5;80.5
45383;DHT22;42455;51.660;5.824;2022-07-29T02:16:42;18.4;81.0
45383;DHT22;42455;51.660;5.824;2022-07-29T02:21:46;18.3;82.0
45383;DHT22;42455;51.660;5.824;2022-07-29T02:26:56;18.1;82.5
45383;DHT22;42455;51.660;5.824;2022-07-29T02:32:00;17.9;83.0
45383;DHT22;42455;51.660;5.824;2022-07-29T02:37:05;17.8;83.5
45383;DHT22;42455;51.660;5.824;2022-07-29T02:47:22;17.6;84.5
45383;DHT22;42455;51.660;5.824;2022-07-29T02:52:32;17.5;85.0
45383;DHT22;42455;51.660;5.824;2022-07-29T02:57:36;17.5;85.0
45383;DHT22;42455;51.660;5.824;2022-07-29T03:02:37;17.4;85.5
45383;DHT22;42455;51.660;5.824;2022-07-29T03:07:43;17.4;85.5
45383;DHT22;42455;51.660;5.824;2022-07-29T03:12:48;17.3;86.0
45383;DHT22;42455;51.660;5.824;2022-07-29T03:17:54;17.3;86.0
45383;DHT22;42455;51.660;5.824;2022-07-29T03:23:00;17.2;86.5
45383;DHT22;42455;51.660;5.824;2022-07-29T03:28:07;17.2;86.5
45383;DHT22;42455;51.660;5.824;2022-07-29T03:33:13;17.2;86.5
45383;DHT22;42455;51.660;5.824;2022-07-29T03:38:20;17.2;86.5
45383;DHT22;42455;51.660;5.824;2022-07-29T03:43:27;17.2;87.0
45383;DHT22;42455;51.660;5.824;2022-07-29T03:48:33;17.1;87.0
45383;DHT22;42455;51.660;5.824;2022-07-29T03:53:38;17.1;87.0
45383;DHT22;42455;51.660;5.824;2022-07-29T03:58:44;17.1;87.0
45383;DHT22;42455;51.660;5.824;2022-07-29T04:03:50;17.1;87.5
45383;DHT22;42455;51.660;5.824;2022-07-29T04:08:56;17.1;87.5
45383;DHT22;42455;51.660;5.824;2022-07-29T04:14:02;17.1;87.5
45383;DHT22;42455;51.660;5.824;2022-07-29T04:19:09;17.1;87.5
45383;DHT22;42455;51.660;5.824;2022-07-29T04:24:15;17.1;87.5
45383;DHT22;42455;51.660;5.824;2022-07-29T04:29:21;17.1;88.0
45383;DHT22;42455;51.660;5.824;2022-07-29T04:34:27;17.1;88.0
45383;DHT22;42455;51.660;5.824;2022-07-29T04:39:33;17.1;88.5
45383;DHT22;42455;51.660;5.824;2022-07-29T04:44:40;17.1;88.5
45383;DHT22;42455;51.660;5.824;2022-07-29T04:49:46;17.1;88.5
45383;DHT22;42455;51.660;5.824;2022-07-29T04:54:52;17.1;88.5
45383;DHT22;42455;51.660;5.824;2022-07-29T04:59:58;17.0;89.0
45383;DHT22;42455;51.660;5.824;2022-07-29T05:05:05;17.0;89.5
45383;DHT22;42455;51.660;5.824;2022-07-29T05:10:11;17.0;89.5
45383;DHT22;42455;51.660;5.824;2022-07-29T05:15:17;17.0;89.5
45383;DHT22;42455;51.660;5.824;2022-07-29T05:20:23;17.0;89.5
45383;DHT22;42455;51.660;5.824;2022-07-29T05:25:29;17.0;90.0
45383;DHT22;42455;51.660;5.824;2022-07-29T05:30:36;17.0;90.0
45383;DHT22;42455;51.660;5.824;2022-07-29T05:35:42;17.0;90.0
45383;DHT22;42455;51.660;5.824;2022-07-29T05:40:48;17.1;90.0
45383;DHT22;42455;51.660;5.824;2022-07-29T05:45:54;17.1;90.0
45383;DHT22;42455;51.660;5.824;2022-07-29T05:51:00;17.1;90.5
45383;DHT22;42455;51.660;5.824;2022-07-29T05:56:07;17.2;90.0
45383;DHT22;42455;51.660;5.824;2022-07-29T06:01:13;17.2;90.0
45383;DHT22;42455;51.660;5.824;2022-07-29T06:06:19;17.2;90.5
45383;DHT22;42455;51.660;5.824;2022-07-29T06:11:25;17.2;90.5
45383;DHT22;42455;51.660;5.824;2022-07-29T06:16:31;17.3;90.5
45383;DHT22;42455;51.660;5.824;2022-07-29T06:21:40;17.3;90.5
45383;DHT22;42455;51.660;5.824;2022-07-29T06:26:44;17.3;90.5
45383;DHT22;42455;51.660;5.824;2022-07-29T06:31:50;17.3;90.5
45383;DHT22;42455;51.660;5.824;2022-07-29T06:36:56;17.3;90.5
45383;DHT22;42455;51.660;5.824;2022-07-29T06:42:02;17.3;90.5
45383;DHT22;42455;51.660;5.824;2022-07-29T06:47:08;17.4;90.5
45383;DHT22;42455;51.660;5.824;2022-07-29T06:52:14;17.4;90.5
45383;DHT22;42455;51.660;5.824;2022-07-29T06:57:20;17.4;90.5
45383;DHT22;42455;51.660;5.824;2022-07-29T07:02:26;17.4;90.5
45383;DHT22;42455;51.660;5.824;2022-07-29T07:07:32;17.5;90.5
45383;DHT22;42455;51.660;5.824;2022-07-29T07:12:38;17.5;90.0
45383;DHT22;42455;51.660;5.824;2022-07-29T07:17:44;17.5;90.5
45383;DHT22;42455;51.660;5.824;2022-07-29T07:22:50;17.5;90.5
45383;DHT22;42455;51.660;5.824;2022-07-29T07:27:57;17.6;90.5
45383;DHT22;42455;51.660;5.824;2022-07-29T07:33:03;17.7;90.5
45383;DHT22;42455;51.660;5.824;2022-07-29T07:38:09;17.7;90.5
45383;DHT22;42455;51.660;5.824;2022-07-29T07:43:15;17.8;90.5
45383;DHT22;42455;51.660;5.824;2022-07-29T07:48:21;17.8;90.5
45383;DHT22;42455;51.660;5.824;2022-07-29T07:53:27;17.9;90.0
45383;DHT22;42455;51.660;5.824;2022-07-29T07:58:34;18.0;90.0
45383;DHT22;42455;51.660;5.824;2022-07-29T08:03:40;18.1;90.0
45383;DHT22;42455;51.660;5.824;2022-07-29T08:08:46;18.2;90.0
45383;DHT22;42455;51.660;5.824;2022-07-29T08:13:52;18.3;90.0
45383;DHT22;42455;51.660;5.824;2022-07-29T08:18:58;18.4;89.5
45383;DHT22;42455;51.660;5.824;2022-07-29T08:24:05;18.5;89.5
45383;DHT22;42455;51.660;5.824;2022-07-29T08:29:12;18.6;89.5
45383;DHT22;42455;51.660;5.824;2022-07-29T08:34:17;18.7;89.5
45383;DHT22;42455;51.660;5.824;2022-07-29T08:39:24;18.9;89.0
45383;DHT22;42455;51.660;5.824;2022-07-29T08:49:37;19.7;89.0
45383;DHT22;42455;51.660;5.824;2022-07-29T08:54:43;20.1;87.5
45383;DHT22;42455;51.660;5.824;2022-07-29T08:59:50;20.4;86.5
45383;DHT22;42455;51.660;5.824;2022-07-29T09:04:56;20.8;86.0
45383;DHT22;42455;51.660;5.824;2022-07-29T09:10:01;21.1;84.5
45383;DHT22;42455;51.660;5.824;2022-07-29T09:15:07;21.3;84.0
45383;DHT22;42455;51.660;5.824;2022-07-29T09:20:16;21.6;83.5
45383;DHT22;42455;51.660;5.824;2022-07-29T09:25:32;21.7;82.0
45383;DHT22;42455;51.660;5.824;2022-07-29T09:30:25;21.9;81.5
45383;DHT22;42455;51.660;5.824;2022-07-29T09:35:32;22.2;81.5
45383;DHT22;42455;51.660;5.824;2022-07-29T09:40:38;22.4;81.0
45383;DHT22;42455;51.660;5.824;2022-07-29T09:45:44;22.6;81.0
45383;DHT22;42455;51.660;5.824;2022-07-29T09:50:51;22.9;80.0
45383;DHT22;42455;51.660;5.824;2022-07-29T10:06:11;23.5;78.5
45383;DHT22;42455;51.660;5.824;2022-07-29T10:11:17;23.8;78.0
45383;DHT22;42455;51.660;5.824;2022-07-29T10:16:26;24.0;76.5
45383;DHT22;42455;51.660;5.824;2022-07-29T10:21:32;24.2;75.5
45383;DHT22;42455;51.660;5.824;2022-07-29T10:26:44;24.3;75.5
45383;DHT22;42455;51.660;5.824;2022-07-29T10:32:07;24.5;75.0
45383;DHT22;42455;51.660;5.824;2022-07-29T10:38:39;24.7;75.0
45383;DHT22;42455;51.660;5.824;2022-07-29T10:42:40;24.9;75.0
45383;DHT22;42455;51.660;5.824;2022-07-29T10:47:27;25.1;74.0
45383;DHT22;42455;51.660;5.824;2022-07-29T10:52:52;25.3;73.5
45383;DHT22;42455;51.660;5.824;2022-07-29T10:58:14;25.5;73.0
45383;DHT22;42455;51.660;5.824;2022-07-29T11:03:02;25.7;72.5
45383;DHT22;42455;51.660;5.824;2022-07-29T11:08:26;25.9;70.5
45383;DHT22;42455;51.660;5.824;2022-07-29T11:18:21;26.0;70.0
45383;DHT22;42455;51.660;5.824;2022-07-29T11:23:30;26.2;68.0
45383;DHT22;42455;51.660;5.824;2022-07-29T11:28:34;26.2;68.0
45383;DHT22;42455;51.660;5.824;2022-07-29T11:33:41;26.3;68.0
45383;DHT22;42455;51.660;5.824;2022-07-29T11:38:46;26.5;68.5
45383;DHT22;42455;51.660;5.824;2022-07-29T11:43:53;26.6;68.0
45383;DHT22;42455;51.660;5.824;2022-07-29T11:48:59;26.8;67.5
45383;DHT22;42455;51.660;5.824;2022-07-29T11:54:05;26.9;66.5
45383;DHT22;42455;51.660;5.824;2022-07-29T11:59:11;27.0;66.0
45383;DHT22;42455;51.660;5.824;2022-07-29T12:04:17;27.1;65.0
45383;DHT22;42455;51.660;5.824;2022-07-29T12:09:23;27.2;65.5
45383;DHT22;42455;51.660;5.824;2022-07-29T12:14:30;27.4;64.0
45383;DHT22;42455;51.660;5.824;2022-07-29T12:19:42;27.4;64.0
45383;DHT22;42455;51.660;5.824;2022-07-29T12:24:44;27.5;63.0
45383;DHT22;42455;51.660;5.824;2022-07-29T12:29:54;27.5;63.5
45383;DHT22;42455;51.660;5.824;2022-07-29T12:34:54;27.6;63.5
45383;DHT22;42455;51.660;5.824;2022-07-29T12:40:01;27.7;63.5
45383;DHT22;42455;51.660;5.824;2022-07-29T12:45:07;0.0;0.0
45383;DHT22;42455;51.660;5.824;2022-07-29T12:50:14;28.0;63.0
45383;DHT22;42455;51.660;5.824;2022-07-29T12:55:41;28.1;62.5
45383;DHT22;42455;51.660;5.824;2022-07-29T13:00:23;28.2;62.5
45383;DHT22;42455;51.660;5.824;2022-07-29T13:05:39;28.4;62.0
45383;DHT22;42455;51.660;5.824;2022-07-29T13:10:36;28.5;62.5
45383;DHT22;42455;51.660;5.824;2022-07-29T13:15:44;28.7;61.5
45383;DHT22;42455;51.660;5.824;2022-07-29T13:20:48;28.7;61.0
45383;DHT22;42455;51.660;5.824;2022-07-29T13:26:04;28.9;61.0
45383;DHT22;42455;51.660;5.824;2022-07-29T13:31:01;29.0;60.0
45383;DHT22;42455;51.660;5.824;2022-07-29T13:36:07;29.2;60.0
45383;DHT22;42455;51.660;5.824;2022-07-29T13:41:13;29.4;59.0
45383;DHT22;42455;51.660;5.824;2022-07-29T13:46:21;29.5;58.5
45383;DHT22;42455;51.660;5.824;2022-07-29T13:51:26;29.6;59.0
45383;DHT22;42455;51.660;5.824;2022-07-29T13:56:32;29.7;58.0
45383;DHT22;42455;51.660;5.824;2022-07-29T14:01:38;29.8;57.5
45383;DHT22;42455;51.660;5.824;2022-07-29T14:06:44;29.8;57.0
45383;DHT22;42455;51.660;5.824;2022-07-29T14:11:50;29.8;57.0
45383;DHT22;42455;51.660;5.824;2022-07-29T14:16:57;29.9;57.5
45383;DHT22;42455;51.660;5.824;2022-07-29T14:22:04;30.0;57.0
45383;DHT22;42455;51.660;5.824;2022-07-29T14:27:09;30.1;56.5
45383;DHT22;42455;51.660;5.824;2022-07-29T14:32:15;30.1;56.0
45383;DHT22;42455;51.660;5.824;2022-07-29T14:37:22;30.1;56.0
45383;DHT22;42455;51.660;5.824;2022-07-29T14:42:28;30.1;55.0
45383;DHT22;42455;51.660;5.824;2022-07-29T14:47:34;30.0;55.0
45383;DHT22;42455;51.660;5.824;2022-07-29T14:52:39;30.0;55.0
45383;DHT22;42455;51.660;5.824;2022-07-29T14:57:45;30.0;55.5
45383;DHT22;42455;51.660;5.824;2022-07-29T15:02:51;30.0;55.5
45383;DHT22;42455;51.660;5.824;2022-07-29T15:07:57;30.0;55.0
45383;DHT22;42455;51.660;5.824;2022-07-29T15:13:03;30.0;54.5
45383;DHT22;42455;51.660;5.824;2022-07-29T15:18:09;30.0;55.0
45383;DHT22;42455;51.660;5.824;2022-07-29T15:23:16;30.1;54.5
45383;DHT22;42455;51.660;5.824;2022-07-29T15:28:22;30.2;54.5
45383;DHT22;42455;51.660;5.824;2022-07-29T15:33:28;30.3;53.5
45383;DHT22;42455;51.660;5.824;2022-07-29T15:38:34;30.2;52.5
45383;DHT22;42455;51.660;5.824;2022-07-29T15:43:43;30.2;53.0
45383;DHT22;42455;51.660;5.824;2022-07-29T15:48:47;30.0;53.0
45383;DHT22;42455;51.660;5.824;2022-07-29T15:53:53;29.7;53.5
45383;DHT22;42455;51.660;5.824;2022-07-29T15:58:59;29.4;54.5
45383;DHT22;42455;51.660;5.824;2022-07-29T16:04:05;29.1;54.5
45383;DHT22;42455;51.660;5.824;2022-07-29T16:09:12;29.0;55.0
45383;DHT22;42455;51.660;5.824;2022-07-29T16:14:18;29.0;55.5
45383;DHT22;42455;51.660;5.824;2022-07-29T16:19:24;28.8;56.0
45383;DHT22;42455;51.660;5.824;2022-07-29T16:24:30;28.7;56.5
45383;DHT22;42455;51.660;5.824;2022-07-29T16:29:36;28.5;57.0
45383;DHT22;42455;51.660;5.824;2022-07-29T16:34:43;28.4;57.0
45383;DHT22;42455;51.660;5.824;2022-07-29T16:39:49;28.2;57.5
45383;DHT22;42455;51.660;5.824;2022-07-29T16:44:54;28.2;57.0
45383;DHT22;42455;51.660;5.824;2022-07-29T16:50:00;28.1;57.0
45383;DHT22;42455;51.660;5.824;2022-07-29T16:55:06;28.0;57.5
45383;DHT22;42455;51.660;5.824;2022-07-29T17:00:14;27.8;57.5
45383;DHT22;42455;51.660;5.824;2022-07-29T17:05:19;27.6;57.5
45383;DHT22;42455;51.660;5.824;2022-07-29T17:10:25;27.4;58.0
45383;DHT22;42455;51.660;5.824;2022-07-29T17:15:31;27.3;58.5
45383;DHT22;42455;51.660;5.824;2022-07-29T17:20:39;27.2;59.0
45383;DHT22;42455;51.660;5.824;2022-07-29T17:25:44;27.4;59.5
45383;DHT22;42455;51.660;5.824;2022-07-29T17:30:50;27.6;59.0
45383;DHT22;42455;51.660;5.824;2022-07-29T17:35:56;27.8;58.5
45383;DHT22;42455;51.660;5.824;2022-07-29T17:41:02;28.0;58.5
45383;DHT22;42455;51.660;5.824;2022-07-29T17:46:09;28.1;57.5
45383;DHT22;42455;51.660;5.824;2022-07-29T17:51:15;28.1;57.0
45383;DHT22;42455;51.660;5.824;2022-07-29T17:56:21;28.1;57.0
45383;DHT22;42455;51.660;5.824;2022-07-29T18:01:27;28.0;57.5
45383;DHT22;42455;51.660;5.824;2022-07-29T18:06:34;28.0;58.0
45383;DHT22;42455;51.660;5.824;2022-07-29T18:11:40;28.0;58.0
45383;DHT22;42455;51.660;5.824;2022-07-29T18:16:46;27.8;58.0
45383;DHT22;42455;51.660;5.824;2022-07-29T18:21:52;27.7;58.0
45383;DHT22;42455;51.660;5.824;2022-07-29T18:26:58;27.5;58.5
45383;DHT22;42455;51.660;5.824;2022-07-29T18:32:04;27.2;59.0
45383;DHT22;42455;51.660;5.824;2022-07-29T18:37:10;27.0;59.0
45383;DHT22;42455;51.660;5.824;2022-07-29T18:42:15;26.8;59.0
45383;DHT22;42455;51.660;5.824;2022-07-29T18:47:22;26.5;59.5
45383;DHT22;42455;51.660;5.824;2022-07-29T18:52:27;26.3;60.0
45383;DHT22;42455;51.660;5.824;2022-07-29T18:57:33;26.1;61.0
45383;DHT22;42455;51.660;5.824;2022-07-29T19:02:39;25.9;61.5
45383;DHT22;42455;51.660;5.824;2022-07-29T19:12:51;25.5;62.5
45383;DHT22;42455;51.660;5.824;2022-07-29T19:17:58;25.2;63.0
45383;DHT22;42455;51.660;5.824;2022-07-29T19:23:04;25.0;64.0
45383;DHT22;42455;51.660;5.824;2022-07-29T19:28:10;24.8;64.5
45383;DHT22;42455;51.660;5.824;2022-07-29T19:33:17;24.6;64.5
45383;DHT22;42455;51.660;5.824;2022-07-29T19:38:22;24.4;65.0
45383;DHT22;42455;51.660;5.824;2022-07-29T19:43:29;24.3;65.0
45383;DHT22;42455;51.660;5.824;2022-07-29T19:48:35;24.1;65.5
45383;DHT22;42455;51.660;5.824;2022-07-29T19:53:41;23.9;65.5
45383;DHT22;42455;51.660;5.824;2022-07-29T19:58:47;23.7;65.5
45383;DHT22;42455;51.660;5.824;2022-07-29T20:03:53;23.5;66.5
45383;DHT22;42455;51.660;5.824;2022-07-29T20:09:00;23.4;66.5
45383;DHT22;42455;51.660;5.824;2022-07-29T20:14:06;23.2;67.0
45383;DHT22;42455;51.660;5.824;2022-07-29T20:19:12;23.0;67.0
45383;DHT22;42455;51.660;5.824;2022-07-29T20:24:19;22.8;67.5
45383;DHT22;42455;51.660;5.824;2022-07-29T20:29:25;22.7;68.0
45383;DHT22;42455;51.660;5.824;2022-07-29T20:34:31;22.5;68.5
45383;DHT22;42455;51.660;5.824;2022-07-29T20:39:37;22.4;68.5
45383;DHT22;42455;51.660;5.824;2022-07-29T20:44:42;22.3;69.0
45383;DHT22;42455;51.660;5.824;2022-07-29T20:49:49;22.1;69.5
45383;DHT22;42455;51.660;5.824;2022-07-29T20:54:55;22.0;70.0
45383;DHT22;42455;51.660;5.824;2022-07-29T21:00:01;21.9;70.5
45383;DHT22;42455;51.660;5.824;2022-07-29T21:05:07;21.8;70.5
45383;DHT22;42455;51.660;5.824;2022-07-29T21:10:13;21.7;70.5
45383;DHT22;42455;51.660;5.824;2022-07-29T21:15:20;21.6;71.0
45383;DHT22;42455;51.660;5.824;2022-07-29T21:20:27;21.5;71.5
45383;DHT22;42455;51.660;5.824;2022-07-29T21:25:32;21.4;72.0
45383;DHT22;42455;51.660;5.824;2022-07-29T21:30:38;21.3;72.5
45383;DHT22;42455;51.660;5.824;2022-07-29T21:35:44;21.2;72.5
45383;DHT22;42455;51.660;5.824;2022-07-29T21:40:51;21.1;73.0
45383;DHT22;42455;51.660;5.824;2022-07-29T21:45:58;21.0;73.5
45383;DHT22;42455;51.660;5.824;2022-07-29T21:56:09;20.9;74.0
45383;DHT22;42455;51.660;5.824;2022-07-29T22:01:15;20.8;74.5
45383;DHT22;42455;51.660;5.824;2022-07-29T22:06:21;20.7;75.0
45383;DHT22;42455;51.660;5.824;2022-07-29T22:11:28;20.7;75.0
45383;DHT22;42455;51.660;5.824;2022-07-29T22:16:34;20.6;75.5
45383;DHT22;42455;51.660;5.824;2022-07-29T22:21:40;20.5;75.5
45383;DHT22;42455;51.660;5.824;2022-07-29T22:26:46;20.5;75.5
45383;DHT22;42455;51.660;5.824;2022-07-29T22:31:53;20.4;75.5
45383;DHT22;42455;51.660;5.824;2022-07-29T22:36:58;20.3;75.5
45383;DHT22;42455;51.660;5.824;2022-07-29T22:42:04;20.2;76.0
45383;DHT22;42455;51.660;5.824;2022-07-29T22:47:09;20.1;76.5
45383;DHT22;42455;51.660;5.824;2022-07-29T22:52:15;20.0;77.0
45383;DHT22;42455;51.660;5.824;2022-07-29T22:57:22;19.9;77.5
45383;DHT22;42455;51.660;5.824;2022-07-29T23:02:28;19.8;77.5
45383;DHT22;42455;51.660;5.824;2022-07-29T23:07:35;19.7;78.0
45383;DHT22;42455;51.660;5.824;2022-07-29T23:12:40;19.6;78.0
45383;DHT22;42455;51.660;5.824;2022-07-29T23:17:46;19.5;78.5
45383;DHT22;42455;51.660;5.824;2022-07-29T23:22:53;19.4;79.0
45383;DHT22;42455;51.660;5.824;2022-07-29T23:27:59;19.3;79.0
45383;DHT22;42455;51.660;5.824;2022-07-29T23:33:05;19.3;79.5
45383;DHT22;42455;51.660;5.824;2022-07-29T23:38:11;19.2;80.0
45383;DHT22;42455;51.660;5.824;2022-07-29T23:43:17;19.1;80.5
45383;DHT22;42455;51.660;5.824;2022-07-29T23:48:24;19.1;80.5
45383;DHT22;42455;51.660;5.824;2022-07-29T23:53:30;19.0;81.0
45383;DHT22;42455;51.660;5.824;2022-07-29T23:58:36;19.0;81.5
